Time;durP1;ratioP1;P1;durP2;ratioP2;P2;SDS_P1;SDS_P2;PMS_P1;PMS_P2;Temp;Humidity;BMP_temperature;BMP_pressure;BME280_temperature;BME280_humidity;BME280_pressure;Samples;Min_cycle;Max_cycle;Signal;HPM_P1;HPM_P2
2021/12/27 00:00:34;;;;;;;2.75;1.17;;;22.20;99.90;;;;;;5059489;28;20021;-66
2021/12/27 00:03:02;;;;;;;4.65;1.25;;;22.30;99.60;;;;;;5065667;28;20054;-68
2021/12/27 00:05:30;;;;;;;2.88;1.20;;;22.70;99.10;;;;;;5057522;28;20493;-68
2021/12/27 00:07:57;;;;;;;2.35;0.90;;;23.00;97.80;;;;;;5058152;28;20029;-67
2021/12/27 00:10:27;;;;;;;4.13;1.05;;;23.00;98.30;;;;;;5060679;28;20017;-66
2021/12/27 00:12:55;;;;;;;3.50;1.20;;;23.10;97.80;;;;;;5057697;28;20067;-66
2021/12/27 00:15:23;;;;;;;3.00;1.50;;;23.10;98.10;;;;;;5055932;28;20063;-66
2021/12/27 00:17:50;;;;;;;2.97;1.00;;;23.20;98.50;;;;;;5064517;28;20031;-72
2021/12/27 00:20:20;;;;;;;5.25;1.50;;;23.70;96.90;;;;;;5057098;28;20037;-68
2021/12/27 00:22:49;;;;;;;5.50;1.65;;;23.60;96.50;;;;;;5067115;28;20064;-67
2021/12/27 00:25:17;;;;;;;3.45;1.42;;;23.30;97.20;;;;;;5058290;28;20028;-66
2021/12/27 00:27:44;;;;;;;4.20;1.55;;;23.40;96.60;;;;;;5057497;28;20033;-71
2021/12/27 00:30:13;;;;;;;9.40;1.50;;;23.50;96.90;;;;;;5061346;28;20029;-67
2021/12/27 00:32:43;;;;;;;3.08;1.20;;;23.60;96.00;;;;;;5053462;28;20483;-66
2021/12/27 00:35:12;;;;;;;3.65;1.10;;;23.90;96.40;;;;;;5062711;28;20544;-66
2021/12/27 00:37:40;;;;;;;6.13;1.30;;;24.00;96.00;;;;;;5061997;28;20411;-72
2021/12/27 00:40:09;;;;;;;4.90;1.20;;;24.20;95.20;;;;;;5068166;28;20031;-67
2021/12/27 00:42:36;;;;;;;4.72;1.45;;;24.20;95.60;;;;;;5057601;28;20032;-73
2021/12/27 00:45:04;;;;;;;4.03;1.50;;;24.10;94.80;;;;;;5062286;28;20040;-70
2021/12/27 00:47:31;;;;;;;6.20;1.48;;;24.10;94.90;;;;;;5067134;28;20025;-66
2021/12/27 00:49:58;;;;;;;5.55;1.63;;;24.10;95.30;;;;;;5063217;28;20024;-68
2021/12/27 00:52:26;;;;;;;4.40;1.55;;;23.70;95.30;;;;;;5059231;28;20039;-69
2021/12/27 00:54:53;;;;;;;3.55;1.25;;;23.80;95.60;;;;;;5060095;28;20052;-67
2021/12/27 00:57:20;;;;;;;6.40;1.70;;;24.10;95.50;;;;;;5063608;28;20099;-65
2021/12/27 00:59:47;;;;;;;4.22;1.38;;;24.00;94.70;;;;;;5059984;28;20028;-66
2021/12/27 01:02:14;;;;;;;3.45;1.52;;;24.00;95.60;;;;;;5060683;28;20017;-68
2021/12/27 01:04:41;;;;;;;4.90;2.00;;;23.90;94.00;;;;;;5060402;28;20074;-69
2021/12/27 01:07:08;;;;;;;7.97;1.75;;;23.80;94.70;;;;;;5056504;28;20295;-75
2021/12/27 01:17:46;;;;;;;6.90;1.90;;;24.50;93.20;;;;;;5034145;28;20037;-67
2021/12/27 01:20:18;;;;;;;9.00;2.65;;;24.30;93.50;;;;;;5056415;28;20040;-68
2021/12/27 01:22:45;;;;;;;6.82;1.98;;;24.00;93.90;;;;;;5054256;28;20503;-67
2021/12/27 01:25:12;;;;;;;5.93;1.92;;;23.90;94.10;;;;;;5058912;28;20033;-68
2021/12/27 01:27:41;;;;;;;5.50;1.50;;;23.90;93.70;;;;;;5061201;28;20034;-67
2021/12/27 01:30:11;;;;;;;6.78;2.05;;;23.80;94.70;;;;;;5059440;28;20635;-68
2021/12/27 01:32:45;;;;;;;3.88;1.70;;;24.10;94.10;;;;;;5060204;28;20082;-68
2021/12/27 01:35:13;;;;;;;6.50;1.98;;;24.40;94.20;;;;;;5057913;28;20042;-67
2021/12/27 01:37:40;;;;;;;5.18;1.90;;;24.50;93.10;;;;;;5057542;28;20029;-67
2021/12/27 01:40:09;;;;;;;6.10;1.80;;;24.70;92.60;;;;;;5059146;28;20067;-75
2021/12/27 01:42:36;;;;;;;5.63;1.45;;;24.80;92.10;;;;;;5061233;28;20024;-68
2021/12/27 01:45:04;;;;;;;6.25;2.00;;;24.60;91.90;;;;;;5062714;28;20041;-68
2021/12/27 01:47:32;;;;;;;7.53;2.38;;;24.60;92.40;;;;;;5057933;28;20021;-68
2021/12/27 01:49:59;;;;;;;6.03;2.10;;;25.00;91.70;;;;;;5061608;28;20029;-65
2021/12/27 01:52:26;;;;;;;8.90;2.63;;;25.20;91.10;;;;;;5062625;28;20053;-67
2021/12/27 01:54:53;;;;;;;7.13;2.15;;;25.30;90.50;;;;;;5057799;28;20051;-69
2021/12/27 01:57:20;;;;;;;6.75;2.60;;;25.40;90.30;;;;;;5061131;28;20040;-68
2021/12/27 01:59:47;;;;;;;9.85;2.97;;;25.40;90.70;;;;;;5063760;28;20024;-68
2021/12/27 02:02:14;;;;;;;7.18;1.77;;;25.40;90.10;;;;;;5064327;28;20016;-68
2021/12/27 02:04:41;;;;;;;8.38;2.15;;;25.30;91.00;;;;;;5065223;28;20028;-69
2021/12/27 02:07:08;;;;;;;7.50;2.67;;;24.80;90.90;;;;;;5065009;28;20526;-69
2021/12/27 02:09:46;;;;;;;9.43;2.25;;;24.60;90.90;;;;;;5061446;28;20398;-69
2021/12/27 02:12:14;;;;;;;7.40;2.45;;;24.60;91.10;;;;;;5061804;28;20021;-72
2021/12/27 02:14:40;;;;;;;10.15;2.42;;;24.30;91.50;;;;;;5057964;28;20029;-72
2021/12/27 02:17:08;;;;;;;8.65;2.78;;;24.10;91.50;;;;;;5061992;28;20024;-69
2021/12/27 02:19:37;;;;;;;7.15;1.70;;;23.80;92.10;;;;;;5061026;28;20056;-69
2021/12/27 02:22:04;;;;;;;7.05;2.75;;;23.70;92.70;;;;;;5060824;28;20017;-72
2021/12/27 02:24:33;;;;;;;6.55;1.98;;;23.60;92.90;;;;;;5064427;28;20028;-72
2021/12/27 02:27:00;;;;;;;7.80;2.22;;;23.90;93.20;;;;;;5063318;28;20016;-70
2021/12/27 02:29:27;;;;;;;5.63;2.67;;;24.30;92.10;;;;;;5064840;28;20052;-69
2021/12/27 02:31:54;;;;;;;5.53;2.08;;;24.60;90.90;;;;;;5068243;28;20029;-69
2021/12/27 02:34:21;;;;;;;4.75;1.92;;;24.50;90.60;;;;;;5063647;28;20036;-72
2021/12/27 02:36:49;;;;;;;8.15;2.17;;;24.40;91.30;;;;;;5065017;28;20017;-69
2021/12/27 02:39:17;;;;;;;7.65;1.77;;;24.30;90.40;;;;;;5065271;28;20087;-71
2021/12/27 02:41:45;;;;;;;6.35;2.10;;;24.50;90.50;;;;;;5062778;28;20048;-72
2021/12/27 02:44:12;;;;;;;5.35;2.13;;;24.70;90.20;;;;;;5065679;28;20052;-69
2021/12/27 02:46:39;;;;;;;5.03;2.30;;;24.80;88.70;;;;;;5059840;28;20211;-72
2021/12/27 02:49:06;;;;;;;9.43;2.10;;;24.90;88.90;;;;;;5058296;28;20029;-72
2021/12/27 02:51:33;;;;;;;5.13;1.92;;;24.90;88.40;;;;;;5065203;28;20029;-69
2021/12/27 02:54:00;;;;;;;8.35;2.63;;;24.90;87.50;;;;;;5063008;28;20028;-72
2021/12/27 02:56:29;;;;;;;8.18;1.92;;;24.60;87.00;;;;;;5069243;28;20101;-69
2021/12/27 02:58:58;;;;;;;5.22;1.95;;;24.40;87.50;;;;;;5065213;28;20047;-68
2021/12/27 03:01:25;;;;;;;7.93;2.20;;;24.10;89.00;;;;;;5062368;28;20012;-69
2021/12/27 03:03:53;;;;;;;8.02;2.05;;;24.10;90.00;;;;;;5058416;28;20033;-71
2021/12/27 03:06:20;;;;;;;6.55;1.95;;;24.40;90.10;;;;;;5059900;28;20024;-69
2021/12/27 03:08:49;;;;;;;6.90;2.67;;;24.60;89.20;;;;;;5056954;28;20365;-69
2021/12/27 03:11:17;;;;;;;6.45;2.38;;;24.60;89.60;;;;;;5061548;28;20025;-69
2021/12/27 03:13:52;;;;;;;7.50;2.35;;;24.40;89.50;;;;;;5062115;28;20033;-75
2021/12/27 03:16:21;;;;;;;7.40;2.60;;;24.20;90.00;;;;;;5070124;28;20020;-69
2021/12/27 03:18:51;;;;;;;5.07;2.17;;;24.30;89.60;;;;;;4365205;28;10000755;-69
2021/12/27 03:21:20;;;;;;;7.00;2.08;;;24.30;88.60;;;;;;5054705;28;20086;-70
2021/12/27 03:23:48;;;;;;;7.05;2.17;;;24.40;89.10;;;;;;5051192;28;20029;-71
2021/12/27 03:26:15;;;;;;;8.25;2.13;;;24.20;90.00;;;;;;5058799;28;20028;-71
2021/12/27 03:28:43;;;;;;;8.20;2.70;;;24.00;89.80;;;;;;5052461;28;20179;-74
2021/12/27 03:31:11;;;;;;;7.32;2.17;;;24.00;90.30;;;;;;5050391;28;20396;-69
2021/12/27 03:33:38;;;;;;;7.00;1.95;;;24.10;91.50;;;;;;5050782;28;20065;-75
2021/12/27 03:36:08;;;;;;;9.30;2.67;;;24.00;91.40;;;;;;5058039;28;20471;-70
2021/12/27 03:38:40;;;;;;;7.50;2.10;;;24.00;91.90;;;;;;5054913;28;20493;-72
2021/12/27 03:41:12;;;;;;;7.20;1.88;;;23.90;92.00;;;;;;5056753;28;20025;-74
2021/12/27 03:43:39;;;;;;;9.82;2.05;;;23.80;92.00;;;;;;5051222;28;20071;-68
2021/12/27 03:46:07;;;;;;;6.53;1.98;;;23.80;93.30;;;;;;5054859;28;20044;-67
2021/12/27 03:48:34;;;;;;;8.60;2.55;;;23.70;92.60;;;;;;5060440;28;20485;-71
2021/12/27 03:51:02;;;;;;;11.32;2.67;;;23.50;92.80;;;;;;5062804;28;20534;-75
2021/12/27 03:53:30;;;;;;;7.50;2.55;;;23.30;93.50;;;;;;5050045;28;20033;-69
2021/12/27 03:55:57;;;;;;;13.15;3.97;;;23.20;94.00;;;;;;5058135;28;20028;-69
2021/12/27 03:58:29;;;;;;;8.40;2.42;;;23.10;94.60;;;;;;5057438;28;20536;-69
2021/12/27 04:03:27;;;;;;;4.97;1.52;;;23.20;94.20;;;;;;5060715;28;20060;-74
2021/12/27 04:05:54;;;;;;;6.20;1.80;;;23.20;94.40;;;;;;5064616;28;20339;-72
2021/12/27 04:08:22;;;;;;;7.25;2.25;;;23.30;94.40;;;;;;5058707;28;20039;-70
2021/12/27 04:10:50;;;;;;;6.72;1.92;;;23.50;94.20;;;;;;5057648;28;20053;-69
2021/12/27 04:13:18;;;;;;;7.18;2.22;;;23.80;93.80;;;;;;5056389;28;20036;-74
2021/12/27 04:15:45;;;;;;;3.97;1.50;;;24.00;93.10;;;;;;5054932;28;20487;-69
2021/12/27 04:18:13;;;;;;;9.68;1.85;;;24.20;92.50;;;;;;5054675;28;20020;-68
2021/12/27 04:20:41;;;;;;;5.57;1.75;;;24.20;92.40;;;;;;5053722;28;20020;-68
2021/12/27 04:23:08;;;;;;;6.35;1.58;;;24.00;92.60;;;;;;5054399;28;20274;-73
2021/12/27 04:25:36;;;;;;;6.70;1.77;;;23.90;93.10;;;;;;5055042;28;20036;-69
2021/12/27 04:28:03;;;;;;;5.25;1.80;;;23.90;92.80;;;;;;5055118;28;20086;-69
2021/12/27 04:30:30;;;;;;;4.57;1.63;;;23.60;92.60;;;;;;5053541;28;20025;-69
2021/12/27 04:32:58;;;;;;;5.18;1.40;;;23.50;92.90;;;;;;5052371;28;20357;-70
2021/12/27 04:35:25;;;;;;;5.22;1.45;;;23.40;93.40;;;;;;5048646;28;20025;-72
2021/12/27 04:37:52;;;;;;;7.07;1.88;;;23.30;93.60;;;;;;5061425;28;20532;-72
2021/12/27 04:40:22;;;;;;;5.53;1.60;;;23.40;93.50;;;;;;5058408;28;20024;-71
2021/12/27 04:42:58;;;;;;;5.32;1.70;;;23.50;93.40;;;;;;5047923;28;20033;-69
2021/12/27 04:45:25;;;;;;;4.05;1.48;;;23.90;93.10;;;;;;5031867;28;20037;-70
2021/12/27 04:47:52;;;;;;;5.07;1.55;;;24.20;92.70;;;;;;5032809;28;20031;-71
2021/12/27 04:50:23;;;;;;;5.40;1.73;;;24.60;91.60;;;;;;5036777;28;20021;-69
2021/12/27 04:52:53;;;;;;;5.13;1.55;;;25.70;89.50;;;;;;5033270;28;20027;-72
2021/12/27 04:55:25;;;;;;;2.60;0.88;;;26.10;88.50;;;;;;5038192;28;20475;-69
2021/12/27 04:57:52;;;;;;;4.47;1.27;;;26.30;85.70;;;;;;5042513;28;20491;-71
2021/12/27 05:00:20;;;;;;;3.08;1.00;;;26.00;86.50;;;;;;5036875;28;20033;-72
2021/12/27 05:02:47;;;;;;;3.47;0.77;;;25.70;87.40;;;;;;5029325;28;20091;-73
2021/12/27 05:05:14;;;;;;;1.75;0.80;;;25.30;89.80;;;;;;5028647;28;20383;-70
2021/12/27 05:07:42;;;;;;;2.33;0.65;;;25.30;90.80;;;;;;5040313;28;20037;-70
2021/12/27 05:10:09;;;;;;;2.35;0.80;;;25.10;91.10;;;;;;5031419;28;20471;-69
2021/12/27 05:12:36;;;;;;;3.83;0.82;;;25.00;91.90;;;;;;5039158;28;20059;-74
2021/12/27 05:15:04;;;;;;;1.75;0.90;;;24.90;92.20;;;;;;5032161;28;20494;-72
2021/12/27 05:17:32;;;;;;;1.63;0.60;;;24.60;93.00;;;;;;5039788;28;20112;-69
2021/12/27 05:19:59;;;;;;;3.35;0.95;;;24.50;93.60;;;;;;5040949;28;20083;-72
2021/12/27 05:22:26;;;;;;;2.08;0.55;;;24.10;95.20;;;;;;5029552;28;20018;-71
2021/12/27 05:24:53;;;;;;;0.93;0.38;;;24.20;95.80;;;;;;5030697;28;20446;-71
2021/12/27 05:27:20;;;;;;;0.82;0.50;;;24.00;96.30;;;;;;5047286;28;20028;-74
2021/12/27 05:29:47;;;;;;;1.40;0.80;;;23.60;97.50;;;;;;5037782;28;20349;-70
2021/12/27 05:32:14;;;;;;;1.13;0.30;;;23.20;98.90;;;;;;5036664;28;20120;-68
2021/12/27 05:34:41;;;;;;;1.13;0.47;;;23.00;99.40;;;;;;5037552;28;20483;-71
2021/12/27 05:37:08;;;;;;;0.88;0.47;;;23.30;99.90;;;;;;5036392;28;20045;-69
2021/12/27 05:39:36;;;;;;;1.25;0.65;;;23.70;99.10;;;;;;5032302;28;20022;-69
2021/12/27 05:42:04;;;;;;;1.25;0.38;;;23.90;98.70;;;;;;5032785;28;20071;-69
2021/12/27 05:44:31;;;;;;;1.35;0.38;;;24.10;98.70;;;;;;5070035;22;20052;-71
2021/12/27 05:46:58;;;;;;;0.47;0.28;;;23.60;99.90;;;;;;5063850;28;20013;-71
2021/12/27 05:49:26;;;;;;;0.55;0.20;;;23.20;99.90;;;;;;5055963;28;20118;-75
2021/12/27 05:51:53;;;;;;;1.15;0.30;;;22.70;99.90;;;;;;5050381;28;20024;-74
2021/12/27 05:54:23;;;;;;;1.20;0.30;;;22.10;99.90;;;;;;5054789;28;20037;-68
2021/12/27 05:56:51;;;;;;;0.75;0.38;;;21.80;99.90;;;;;;5056451;28;20033;-75
2021/12/27 05:59:18;;;;;;;1.33;0.82;;;21.30;99.90;;;;;;5061412;28;20478;-73
2021/12/27 06:01:46;;;;;;;1.40;0.55;;;21.10;99.90;;;;;;5068059;28;20135;-71
2021/12/27 06:04:13;;;;;;;2.35;0.68;;;21.00;99.90;;;;;;5065990;28;20111;-73
2021/12/27 06:06:40;;;;;;;3.13;1.00;;;20.80;99.90;;;;;;5057283;28;20487;-71
2021/12/27 06:09:08;;;;;;;1.33;0.87;;;20.70;99.90;;;;;;4707360;28;10001130;-73
2021/12/27 06:11:35;;;;;;;3.10;0.95;;;20.40;99.90;;;;;;5051211;28;20122;-66
2021/12/27 06:14:02;;;;;;;2.45;1.00;;;20.00;99.90;;;;;;5055118;28;20524;-71
2021/12/27 06:16:29;;;;;;;4.95;1.35;;;19.70;99.90;;;;;;5058779;28;20032;-70
2021/12/27 06:18:56;;;;;;;4.03;0.90;;;19.70;99.90;;;;;;5053080;28;20029;-72
2021/12/27 06:21:23;;;;;;;3.17;0.98;;;19.70;99.90;;;;;;5050952;28;20044;-69
2021/12/27 06:23:51;;;;;;;3.22;1.30;;;19.80;99.90;;;;;;5054497;28;20064;-72
2021/12/27 06:26:18;;;;;;;3.10;0.90;;;19.80;99.90;;;;;;5052974;28;20098;-70
2021/12/27 06:28:45;;;;;;;3.85;1.23;;;19.80;99.90;;;;;;5052661;28;20071;-74
2021/12/27 06:31:12;;;;;;;3.28;1.83;;;19.70;99.90;;;;;;5076192;28;20403;-71
2021/12/27 06:33:39;;;;;;;6.18;1.35;;;19.70;99.90;;;;;;5052708;28;20017;-74
2021/12/27 06:36:07;;;;;;;5.00;1.60;;;19.70;99.90;;;;;;5051160;28;20063;-70
2021/12/27 06:38:34;;;;;;;4.57;1.75;;;19.60;99.90;;;;;;5053089;28;20105;-72
2021/12/27 06:41:02;;;;;;;4.03;1.55;;;19.50;99.90;;;;;;5052361;28;20028;-72
2021/12/27 06:43:33;;;;;;;5.95;2.15;;;19.30;99.90;;;;;;5051902;28;20082;-71
2021/12/27 06:46:01;;;;;;;7.60;2.60;;;19.20;99.90;;;;;;5052434;28;20115;-72
2021/12/27 06:48:28;;;;;;;8.52;2.00;;;19.20;99.90;;;;;;5076811;28;20033;-71
2021/12/27 06:50:55;;;;;;;7.38;1.90;;;19.30;99.90;;;;;;5051539;28;20039;-69
2021/12/27 06:53:23;;;;;;;7.03;1.98;;;19.20;99.90;;;;;;5051467;28;20127;-69
2021/12/27 06:55:50;;;;;;;7.47;2.17;;;19.00;99.90;;;;;;5050675;28;20029;-69
2021/12/27 06:58:17;;;;;;;7.88;2.17;;;18.90;99.90;;;;;;5050843;28;20487;-69
2021/12/27 07:00:44;;;;;;;7.97;1.83;;;18.70;99.90;;;;;;5051933;28;20052;-77
2021/12/27 07:03:14;;;;;;;10.82;5.85;;;18.70;99.90;;;;;;5052320;28;20033;-75
2021/12/27 07:05:42;;;;;;;9.10;2.63;;;18.70;99.90;;;;;;5053214;28;20039;-69
2021/12/27 07:08:10;;;;;;;8.15;2.45;;;18.60;99.90;;;;;;5052087;28;20073;-72
2021/12/27 07:10:37;;;;;;;12.20;2.65;;;18.60;99.90;;;;;;5049375;28;20029;-70
2021/12/27 07:13:06;;;;;;;9.77;2.60;;;18.50;99.90;;;;;;5050810;28;20025;-69
2021/12/27 07:15:34;;;;;;;10.02;2.10;;;18.40;99.90;;;;;;5050980;28;20090;-72
2021/12/27 07:18:01;;;;;;;8.57;2.20;;;18.40;99.90;;;;;;5052053;28;20050;-74
2021/12/27 07:20:28;;;;;;;9.65;2.42;;;18.40;99.90;;;;;;5048078;28;20044;-68
2021/12/27 07:22:55;;;;;;;8.75;2.30;;;18.40;99.90;;;;;;5049507;28;20028;-72
2021/12/27 07:25:22;;;;;;;7.63;1.73;;;18.30;99.90;;;;;;5051664;28;20195;-79
2021/12/27 07:27:48;;;;;;;7.97;2.03;;;18.20;99.90;;;;;;5051175;28;20527;-71
2021/12/27 07:30:16;;;;;;;10.05;2.88;;;18.20;99.90;;;;;;5049844;28;20028;-78
2021/12/27 07:32:43;;;;;;;9.68;2.55;;;18.20;99.90;;;;;;5048304;28;20548;-70
2021/12/27 07:35:11;;;;;;;8.63;2.05;;;18.30;99.90;;;;;;5051154;28;20693;-79
2021/12/27 07:37:38;;;;;;;6.50;1.90;;;18.20;99.90;;;;;;5051613;28;20059;-79
2021/12/27 07:40:06;;;;;;;8.20;1.63;;;18.20;99.90;;;;;;5050091;28;20028;-70
2021/12/27 07:42:33;;;;;;;8.70;1.98;;;18.10;99.90;;;;;;5049571;28;20070;-67
2021/12/27 07:45:02;;;;;;;7.25;1.85;;;18.10;99.90;;;;;;5050026;28;20076;-81
2021/12/27 07:47:29;;;;;;;7.35;2.53;;;18.10;99.90;;;;;;5052793;28;20020;-81
2021/12/27 07:49:56;;;;;;;7.55;2.72;;;18.10;99.90;;;;;;5050662;28;20039;-79
2021/12/27 07:52:23;;;;;;;6.63;2.42;;;18.20;99.90;;;;;;5050715;28;20411;-68
2021/12/27 07:54:50;;;;;;;14.32;3.72;;;18.20;99.90;;;;;;5051148;28;20028;-71
2021/12/27 07:57:17;;;;;;;9.50;3.00;;;18.20;99.90;;;;;;5047610;28;20776;-67
2021/12/27 07:59:47;;;;;;;8.85;2.70;;;18.20;99.90;;;;;;5052223;28;20017;-70
2021/12/27 08:02:18;;;;;;;7.35;2.08;;;18.10;99.90;;;;;;5048538;28;20024;-69
2021/12/27 08:04:45;;;;;;;9.57;1.95;;;18.20;99.90;;;;;;5049158;28;20514;-68
2021/12/27 08:07:12;;;;;;;6.63;2.00;;;18.00;99.90;;;;;;5049194;28;20043;-70
2021/12/27 08:09:39;;;;;;;6.97;2.30;;;18.00;99.90;;;;;;5048767;28;20035;-76
2021/12/27 08:12:09;;;;;;;10.93;2.88;;;17.90;99.90;;;;;;5030624;28;20028;-70
2021/12/27 08:14:36;;;;;;;12.73;2.65;;;17.80;99.90;;;;;;5043238;28;20031;-68
2021/12/27 08:17:03;;;;;;;7.13;2.38;;;17.80;99.90;;;;;;5049779;28;20036;-70
2021/12/27 08:19:30;;;;;;;9.80;2.15;;;17.80;99.90;;;;;;5046433;28;20666;-70
2021/12/27 08:21:57;;;;;;;8.73;2.30;;;17.80;99.90;;;;;;5048007;28;20083;-77
2021/12/27 08:24:24;;;;;;;7.03;1.95;;;17.80;99.90;;;;;;5048803;28;20522;-70
2021/12/27 08:26:52;;;;;;;6.93;1.85;;;17.80;99.90;;;;;;5047469;28;20043;-68
2021/12/27 08:29:19;;;;;;;9.18;2.53;;;17.80;99.90;;;;;;5048058;28;20037;-70
2021/12/27 08:31:46;;;;;;;4.10;1.55;;;17.70;99.90;;;;;;5043844;28;20039;-70
2021/12/27 08:34:13;;;;;;;10.05;1.98;;;17.70;99.90;;;;;;5045095;28;20043;-69
2021/12/27 08:36:41;;;;;;;6.65;2.08;;;17.80;99.90;;;;;;5068517;28;20028;-71
2021/12/27 08:39:08;;;;;;;5.97;1.60;;;17.80;99.90;;;;;;5045065;28;20375;-68
2021/12/27 08:41:35;;;;;;;7.47;3.08;;;17.80;99.90;;;;;;5045604;28;20115;-76
2021/12/27 08:44:05;;;;;;;5.90;2.50;;;17.90;99.90;;;;;;5045095;28;20075;-78
2021/12/27 08:46:34;;;;;;;12.23;6.40;;;17.90;99.90;;;;;;5044818;28;20500;-65
2021/12/27 08:49:03;;;;;;;7.85;3.42;;;18.00;99.90;;;;;;5045500;28;20028;-69
2021/12/27 08:51:32;;;;;;;5.38;2.33;;;18.00;99.90;;;;;;5043324;28;20039;-70
2021/12/27 08:54:00;;;;;;;8.82;2.92;;;18.00;99.90;;;;;;5045100;28;20028;-66
2021/12/27 08:56:27;;;;;;;10.45;2.25;;;18.00;99.90;;;;;;5044355;28;20446;-70
2021/12/27 08:58:54;;;;;;;6.55;1.83;;;18.00;99.90;;;;;;5042284;28;20487;-70
2021/12/27 09:01:22;;;;;;;6.00;1.83;;;18.00;99.90;;;;;;5044543;28;20044;-74
2021/12/27 09:03:50;;;;;;;7.68;1.70;;;18.00;99.90;;;;;;5043891;28;20028;-69
2021/12/27 09:06:18;;;;;;;8.68;1.77;;;18.10;99.90;;;;;;5044369;28;20067;-66
2021/12/27 09:08:45;;;;;;;5.22;1.50;;;18.10;99.90;;;;;;5044051;28;20029;-70
2021/12/27 09:11:13;;;;;;;5.03;2.03;;;18.10;99.90;;;;;;5043809;28;20020;-68
2021/12/27 09:13:40;;;;;;;4.90;1.67;;;18.10;99.90;;;;;;5043803;28;20068;-70
2021/12/27 09:16:10;;;;;;;5.95;1.77;;;18.10;99.90;;;;;;5044044;28;20399;-68
2021/12/27 09:18:37;;;;;;;7.68;1.88;;;18.00;99.90;;;;;;5042663;28;20029;-65
2021/12/27 09:21:06;;;;;;;7.38;2.00;;;17.90;99.90;;;;;;5047423;28;20024;-64
2021/12/27 09:23:34;;;;;;;7.75;1.98;;;17.80;99.90;;;;;;5046347;28;20028;-65
2021/12/27 09:26:03;;;;;;;6.40;2.00;;;17.90;99.90;;;;;;5044967;28;20025;-66
2021/12/27 09:28:30;;;;;;;6.97;1.77;;;17.90;99.90;;;;;;5044199;28;20257;-68
2021/12/27 09:30:58;;;;;;;5.20;1.80;;;17.90;99.90;;;;;;5043701;28;20427;-68
2021/12/27 09:33:26;;;;;;;5.78;1.50;;;17.90;99.90;;;;;;5045494;28;20028;-67
2021/12/27 09:35:53;;;;;;;8.82;2.20;;;17.90;99.90;;;;;;5047727;28;20033;-65
2021/12/27 09:38:20;;;;;;;5.97;1.98;;;17.90;99.90;;;;;;5050099;28;20375;-65
2021/12/27 09:40:48;;;;;;;5.78;1.98;;;18.00;99.90;;;;;;5050001;28;20044;-65
2021/12/27 09:43:15;;;;;;;4.72;1.95;;;18.10;99.90;;;;;;5048964;28;20033;-68
2021/12/27 09:45:42;;;;;;;6.18;2.58;;;18.10;99.90;;;;;;5046459;28;20064;-66
2021/12/27 09:48:09;;;;;;;6.95;1.90;;;18.10;99.90;;;;;;5048843;28;20196;-68
2021/12/27 09:50:44;;;;;;;5.90;1.67;;;18.10;99.90;;;;;;5045179;28;20029;-69
2021/12/27 09:53:11;;;;;;;6.45;2.17;;;18.20;99.90;;;;;;5048214;28;20031;-68
2021/12/27 09:55:38;;;;;;;6.13;1.52;;;18.20;99.90;;;;;;5046371;28;20029;-64
2021/12/27 09:58:06;;;;;;;7.60;2.13;;;18.30;99.90;;;;;;5048242;28;20051;-63
2021/12/27 10:00:34;;;;;;;6.57;1.98;;;18.30;99.90;;;;;;5046938;28;20028;-68
2021/12/27 10:03:02;;;;;;;7.18;2.17;;;18.30;99.90;;;;;;5047404;28;20421;-67
2021/12/27 10:05:31;;;;;;;7.10;1.70;;;18.20;99.90;;;;;;5048128;28;20934;-64
2021/12/27 10:07:58;;;;;;;3.53;1.65;;;18.20;99.90;;;;;;5047493;28;20462;-67
2021/12/27 10:10:25;;;;;;;5.97;1.92;;;18.20;99.90;;;;;;5046889;28;20025;-66
2021/12/27 10:12:53;;;;;;;3.50;1.33;;;18.00;99.90;;;;;;5048410;28;20029;-69
2021/12/27 10:15:22;;;;;;;8.85;2.25;;;17.80;99.90;;;;;;5047156;28;20104;-65
2021/12/27 10:17:50;;;;;;;5.30;1.88;;;17.80;99.90;;;;;;5047641;28;20024;-63
2021/12/27 10:20:20;;;;;;;10.05;2.65;;;17.90;99.90;;;;;;5043066;28;20032;-65
2021/12/27 10:22:51;;;;;;;5.70;1.58;;;17.80;99.90;;;;;;5043873;28;20090;-64
2021/12/27 10:25:24;;;;;;;5.45;1.50;;;17.90;99.90;;;;;;5043817;28;20033;-62
2021/12/27 10:27:54;;;;;;;6.40;1.42;;;18.00;99.90;;;;;;5045773;28;20025;-64
2021/12/27 10:30:25;;;;;;;5.90;1.08;;;18.00;99.90;;;;;;5044325;28;20300;-67
2021/12/27 10:33:15;;;;;;;4.00;1.60;;;17.90;99.90;;;;;;5044754;28;20385;-64
2021/12/27 10:35:48;;;;;;;4.95;1.40;;;18.00;99.90;;;;;;5046495;28;20021;-62
2021/12/27 10:38:22;;;;;;;3.88;1.52;;;17.90;99.90;;;;;;5047540;28;20055;-69
2021/12/27 10:40:55;;;;;;;7.35;1.60;;;17.90;99.90;;;;;;5047089;28;20327;-64
2021/12/27 10:43:47;;;;;;;5.60;1.60;;;17.90;99.90;;;;;;5046500;28;20126;-65
2021/12/27 10:46:20;;;;;;;6.53;1.60;;;17.90;99.90;;;;;;5045704;28;20059;-68
2021/12/27 10:48:57;;;;;;;6.32;3.03;;;17.90;99.90;;;;;;5047123;28;20074;-68
2021/12/27 10:51:25;;;;;;;7.82;4.78;;;17.80;99.90;;;;;;5047646;28;20070;-63
2021/12/27 10:53:57;;;;;;;6.05;3.75;;;17.90;99.90;;;;;;5046625;28;20035;-64
2021/12/27 10:56:27;;;;;;;8.43;5.25;;;17.80;99.90;;;;;;5044772;28;20025;-64
2021/12/27 10:58:56;;;;;;;10.60;5.55;;;17.80;99.90;;;;;;5046674;28;20035;-66
2021/12/27 11:01:26;;;;;;;7.75;3.47;;;17.80;99.90;;;;;;5046270;28;20562;-69
2021/12/27 11:03:55;;;;;;;7.22;3.70;;;17.70;99.90;;;;;;5047001;28;20021;-62
2021/12/27 11:06:28;;;;;;;7.28;3.03;;;17.80;99.90;;;;;;5045992;28;20707;-62
2021/12/27 11:08:58;;;;;;;7.22;2.53;;;17.60;99.90;;;;;;5049483;28;20094;-63
2021/12/27 11:11:27;;;;;;;5.75;1.73;;;17.60;99.90;;;;;;5054074;28;20025;-61
2021/12/27 11:13:56;;;;;;;6.65;1.85;;;17.60;99.90;;;;;;5053236;28;20050;-62
2021/12/27 11:16:26;;;;;;;4.85;1.85;;;17.50;99.90;;;;;;5050971;28;20053;-63
2021/12/27 11:18:55;;;;;;;3.83;1.55;;;17.50;99.90;;;;;;5047032;28;20020;-64
2021/12/27 11:21:34;;;;;;;3.75;1.50;;;17.40;99.90;;;;;;5053986;28;20035;-63
2021/12/27 11:24:03;;;;;;;6.50;2.40;;;17.30;99.90;;;;;;5055005;28;20548;-65
2021/12/27 11:26:33;;;;;;;6.82;1.67;;;17.20;99.90;;;;;;5055794;28;20043;-64
2021/12/27 11:29:29;;;;;;;10.13;2.10;;;17.20;99.90;;;;;;5056925;28;21372;-64
2021/12/27 11:32:16;;;;;;;7.65;2.65;;;17.20;99.90;;;;;;5044037;28;20251;-66
2021/12/27 11:35:09;;;;;;;6.35;2.45;;;17.00;99.90;;;;;;5057583;28;20020;-64
2021/12/27 11:37:36;;;;;;;5.32;3.00;;;17.10;99.90;;;;;;5056781;28;20112;-61
2021/12/27 11:40:09;;;;;;;5.72;3.28;;;17.10;99.90;;;;;;5060101;28;20487;-63
2021/12/27 11:42:56;;;;;;;5.60;2.05;;;17.10;99.90;;;;;;5059184;28;20301;-61
2021/12/27 11:45:43;;;;;;;4.13;0.98;;;17.10;99.90;;;;;;5058274;28;20562;-62
2021/12/27 11:48:15;;;;;;;5.60;1.70;;;17.00;99.90;;;;;;5058145;28;20246;-63
2021/12/27 11:50:57;;;;;;;11.73;1.65;;;17.00;99.90;;;;;;5056282;28;20032;-66
2021/12/27 11:53:29;;;;;;;2.78;1.00;;;16.90;99.90;;;;;;5053360;28;20043;-64
2021/12/27 11:55:56;;;;;;;7.82;1.75;;;17.00;99.90;;;;;;5058634;28;20119;-62
2021/12/27 11:58:34;;;;;;;8.80;1.73;;;16.90;99.90;;;;;;5059698;28;20031;-67
2021/12/27 12:01:04;;;;;;;9.02;2.85;;;17.00;99.90;;;;;;5058652;28;20025;-66
2021/12/27 12:03:44;;;;;;;6.07;1.45;;;17.00;99.90;;;;;;5064019;28;20055;-64
2021/12/27 12:06:42;;;;;;;5.68;1.50;;;16.90;99.90;;;;;;5060552;28;20496;-64
2021/12/27 12:09:16;;;;;;;6.47;2.10;;;16.90;99.90;;;;;;5058081;28;20064;-66
2021/12/27 12:11:45;;;;;;;6.75;1.98;;;16.90;99.90;;;;;;5060464;28;20526;-68
2021/12/27 12:14:39;;;;;;;7.28;1.73;;;16.90;99.90;;;;;;5055729;28;20028;-67
2021/12/27 12:17:10;;;;;;;6.30;1.67;;;16.80;99.90;;;;;;4705435;28;9999993;-67
2021/12/27 12:19:41;;;;;;;8.18;1.88;;;16.70;99.90;;;;;;5054515;28;20082;-66
2021/12/27 12:22:29;;;;;;;9.70;2.05;;;16.60;99.90;;;;;;5051974;28;20035;-69
2021/12/27 12:25:14;;;;;;;6.40;1.77;;;16.60;99.90;;;;;;5051494;28;20547;-67
2021/12/27 12:28:01;;;;;;;6.13;2.00;;;16.70;99.90;;;;;;5050659;28;20025;-68
2021/12/27 12:30:32;;;;;;;6.57;1.23;;;16.60;99.90;;;;;;5046937;28;20060;-70
2021/12/27 12:33:12;;;;;;;9.27;2.35;;;16.50;99.90;;;;;;5050040;28;20029;-67
2021/12/27 12:35:57;;;;;;;6.40;1.42;;;16.50;99.90;;;;;;5054525;28;20070;-68
2021/12/27 12:38:39;;;;;;;6.60;1.67;;;16.50;99.90;;;;;;5053940;28;20454;-67
2021/12/27 12:41:22;;;;;;;4.47;1.27;;;16.40;99.90;;;;;;5056262;28;20013;-67
2021/12/27 12:43:57;;;;;;;9.70;1.40;;;16.40;99.90;;;;;;5054323;28;20043;-68
2021/12/27 12:46:38;;;;;;;7.82;1.80;;;16.30;99.90;;;;;;5054033;28;20826;-67
2021/12/27 12:49:10;;;;;;;6.93;1.55;;;16.30;99.90;;;;;;5052776;28;20029;-68
2021/12/27 12:51:37;;;;;;;7.63;1.42;;;16.30;99.90;;;;;;5057850;28;20051;-67
2021/12/27 12:54:09;;;;;;;5.80;1.30;;;16.20;99.90;;;;;;5047820;28;20102;-67
2021/12/27 12:56:37;;;;;;;4.97;1.63;;;16.30;99.90;;;;;;5049767;28;20472;-67
2021/12/27 12:59:05;;;;;;;7.50;2.03;;;16.20;99.90;;;;;;5056642;28;20095;-67
2021/12/27 13:01:32;;;;;;;7.60;1.70;;;16.30;99.90;;;;;;5052167;28;20112;-70
2021/12/27 13:04:00;;;;;;;10.50;2.25;;;16.30;99.90;;;;;;5055008;28;20600;-68
2021/12/27 13:06:28;;;;;;;10.52;2.97;;;16.20;99.90;;;;;;5056205;28;20442;-67